Priština, Kosovo

5:34 PM CEST en Julio 31, 2014 (GMT +0200)
KHMI Prishtina (IPRISTIN3) Alt 1886 ft | 42.65 °N, 21.14 °E | Change Station

Current weather conditions updated 4 minutes ago

Thunderstorms and Rain
Tormenta
73.4 ° F
Sensación térmica 74 ° F
N
3.1
Viento Variable Viento desde SE
Gusts 4.5 mph

Mañana se prevé un día Más frío que hoy. Tormentas..

Hoy
Alta -- | Baja -- ° F
--% Posibilidad de precipitaciones
Ayer
Alta -- | Baja -- ° F
Precip. -- pul
5:25 AM 7:57 PM
Creciente, 19% visible
Presión 29.77 pul
Visibilidad 3.7 Millas
Nubes Nubes dispersas 4000 ft
Muy nublado 5000 ft
Índice de calor 74 ° F
Punto de rocío 67 ° F
Humedad 80%
Precipitaciones 0.14 pul
Espesor de la nieve No disponible.
UV 1 de una escala de 12
Polen No disponible.
Calidad del aire No disponible.
Flu Activity No disponible.
METAR LWSK 311530Z 05005KT 6000 TSRA SCT040CB BKN050 20/19 Q1008 NOSIG

More Conditions Fewer Conditions

Presión 29.77 pul
Visibilidad 3.7 Millas
Nubes Nubes dispersas 4000 ft
Muy nublado 5000 ft
Índice de calor 74 ° F
Punto de rocío 67 ° F
Humedad 80%
Precipitaciones 0.14 pul
Espesor de la nieve No disponible.
UV 1 de una escala de 12
Polen No disponible.
Calidad del aire No disponible.
Flu Activity No disponible.
METAR LWSK 311530Z 05005KT 6000 TSRA SCT040CB BKN050 20/19 Q1008 NOSIG

More Conditions Fewer Conditions

10-Day Weather Forecast

Almanac

Astronomía

Jul. 31, 2014 Salida Puesta
Hora real 5:25 AM CEST 7:57 PM CEST
Crepúsculo civil 4:53 AM CEST 8:29 PM CEST
Crepúsculo náutico 4:13 AM CEST 9:09 PM CEST
Crepúsculo astronómico 3:28 AM CEST 9:53 PM CEST
Luna 9:42 AM CEST 9:53 PM CEST
Horas de luz 15h 35m
Horas de luz
14h 31m
Tomorrow will be 2m 10s shorter.
Creciente, 19% of the Moon is Illuminated
Hoy
Creciente
Ago 3
Cuarto creciente
Ago 10
Luna llena
Ago 17
Cuarto menguante
Ago 25
Nueva

Community

WunderPhotos

Upload Photos

1,739,357 ¡fotos cargadas!

Nearby

Calidad del aire

Not available.

Grosos de nieve

Not available.

Actividad de terremotos

Ciudad Distance Mag. Tiempo y dato
No hay informes recientes de la actividad sísmica.
Magnitud mínima muestra es 2,5.

Temperaturas de aguas costeras

Lugar Temperatura
Sin partes meteorológicos de las estaciones

Estaciones meteorológicas cercanas

Ubicación de la estación Temp. Índice de calor Punto de rocío Humedad Viento Precip. Alt Actualizado Tipo
KHMI Prishtina, Pristina 73.4 ° F 74 ° F 67 ° F 80% SE  a  3.1 mph 0.01 pul / hr 1886 ft 5:30 PM CEST Normal
Velania, Prishtina 71.4 ° F 76 ° F 55 ° F 57% SE  a  0.0 mph 0.00 pul / hr 2192 ft 5:34 PM CEST Rapid Fire
Fshati Nderkombetar, Skeja Res, Prishtine 69.6 ° F - 64 ° F 81% SSO  a  1.6 mph 0.01 pul / hr 2133 ft 5:34 PM CEST Rapid Fire

Show More Stations Show Fewer Stations